sensor_id;sensor_type;location;lat;lon;timestamp;temperature;humidity
31046;DHT22;17711;54.018;9.300;2023-02-10T00:02:28;4.10;99.90
31046;DHT22;17711;54.018;9.300;2023-02-10T00:04:57;4.10;99.90
31046;DHT22;17711;54.018;9.300;2023-02-10T00:07:25;4.10;99.90
31046;DHT22;17711;54.018;9.300;2023-02-10T00:09:54;4.10;99.90
31046;DHT22;17711;54.018;9.300;2023-02-10T00:12:22;4.10;99.90
31046;DHT22;17711;54.018;9.300;2023-02-10T00:14:51;4.10;99.90
31046;DHT22;17711;54.018;9.300;2023-02-10T00:17:21;4.10;99.90
31046;DHT22;17711;54.018;9.300;2023-02-10T00:19:49;4.00;99.90
31046;DHT22;17711;54.018;9.300;2023-02-10T00:22:18;4.00;99.90
31046;DHT22;17711;54.018;9.300;2023-02-10T00:24:46;4.00;99.90
31046;DHT22;17711;54.018;9.300;2023-02-10T00:27:15;4.00;99.90
31046;DHT22;17711;54.018;9.300;2023-02-10T00:29:50;4.00;99.90
31046;DHT22;17711;54.018;9.300;2023-02-10T00:32:18;4.00;99.90
31046;DHT22;17711;54.018;9.300;2023-02-10T00:34:48;4.00;99.90
31046;DHT22;17711;54.018;9.300;2023-02-10T00:37:17;4.00;99.90
31046;DHT22;17711;54.018;9.300;2023-02-10T00:39:46;4.00;99.90
31046;DHT22;17711;54.018;9.300;2023-02-10T00:42:14;4.00;99.90
31046;DHT22;17711;54.018;9.300;2023-02-10T00:44:45;4.00;99.90
31046;DHT22;17711;54.018;9.300;2023-02-10T00:47:14;4.00;99.90
31046;DHT22;17711;54.018;9.300;2023-02-10T00:49:42;3.90;99.90
31046;DHT22;17711;54.018;9.300;2023-02-10T00:52:12;3.90;99.90
31046;DHT22;17711;54.018;9.300;2023-02-10T00:54:41;3.90;99.90
31046;DHT22;17711;54.018;9.300;2023-02-10T00:57:09;3.90;99.90
31046;DHT22;17711;54.018;9.300;2023-02-10T00:59:38;3.90;99.90
31046;DHT22;17711;54.018;9.300;2023-02-10T01:02:07;3.90;99.90
31046;DHT22;17711;54.018;9.300;2023-02-10T01:04:36;3.90;99.90
31046;DHT22;17711;54.018;9.300;2023-02-10T01:07:04;3.90;99.90
31046;DHT22;17711;54.018;9.300;2023-02-10T01:09:34;3.80;99.90
31046;DHT22;17711;54.018;9.300;2023-02-10T01:12:03;3.80;99.90
31046;DHT22;17711;54.018;9.300;2023-02-10T01:14:32;3.80;99.90
31046;DHT22;17711;54.018;9.300;2023-02-10T01:17:01;3.80;99.90
31046;DHT22;17711;54.018;9.300;2023-02-10T01:19:29;3.80;99.90
31046;DHT22;17711;54.018;9.300;2023-02-10T01:21:58;3.80;99.90
31046;DHT22;17711;54.018;9.300;2023-02-10T01:24:26;3.80;99.90
31046;DHT22;17711;54.018;9.300;2023-02-10T01:26:56;3.80;99.90
31046;DHT22;17711;54.018;9.300;2023-02-10T01:29:25;3.80;99.90
31046;DHT22;17711;54.018;9.300;2023-02-10T01:31:53;3.90;99.90
31046;DHT22;17711;54.018;9.300;2023-02-10T01:34:22;3.90;99.90
31046;DHT22;17711;54.018;9.300;2023-02-10T01:36:51;3.80;99.90
31046;DHT22;17711;54.018;9.300;2023-02-10T01:39:19;3.80;99.90
31046;DHT22;17711;54.018;9.300;2023-02-10T01:41:48;3.80;99.90
31046;DHT22;17711;54.018;9.300;2023-02-10T01:47:19;3.70;99.90
31046;DHT22;17711;54.018;9.300;2023-02-10T01:49:50;3.60;99.90
31046;DHT22;17711;54.018;9.300;2023-02-10T01:52:22;3.60;99.90
31046;DHT22;17711;54.018;9.300;2023-02-10T01:54:56;3.60;99.90
31046;DHT22;17711;54.018;9.300;2023-02-10T01:57:26;3.60;99.90
31046;DHT22;17711;54.018;9.300;2023-02-10T01:59:55;3.60;99.90
31046;DHT22;17711;54.018;9.300;2023-02-10T02:02:25;3.60;99.90
31046;DHT22;17711;54.018;9.300;2023-02-10T02:04:59;3.70;99.90
31046;DHT22;17711;54.018;9.300;2023-02-10T02:07:30;3.70;99.90
31046;DHT22;17711;54.018;9.300;2023-02-10T02:10:02;3.80;99.90
31046;DHT22;17711;54.018;9.300;2023-02-10T02:12:38;3.80;99.90
31046;DHT22;17711;54.018;9.300;2023-02-10T02:15:16;3.80;99.90
31046;DHT22;17711;54.018;9.300;2023-02-10T02:17:51;3.80;99.90
31046;DHT22;17711;54.018;9.300;2023-02-10T02:23:28;3.90;99.90
31046;DHT22;17711;54.018;9.300;2023-02-10T02:29:21;4.00;99.90
31046;DHT22;17711;54.018;9.300;2023-02-10T02:32:00;4.10;99.90
31046;DHT22;17711;54.018;9.300;2023-02-10T02:34:35;4.10;99.90
31046;DHT22;17711;54.018;9.300;2023-02-10T02:37:10;4.20;99.90
31046;DHT22;17711;54.018;9.300;2023-02-10T02:39:41;4.20;99.90
31046;DHT22;17711;54.018;9.300;2023-02-10T02:42:21;4.30;99.90
31046;DHT22;17711;54.018;9.300;2023-02-10T02:44:54;4.30;99.90
31046;DHT22;17711;54.018;9.300;2023-02-10T02:47:49;4.40;99.90
31046;DHT22;17711;54.018;9.300;2023-02-10T02:50:26;4.40;99.90
31046;DHT22;17711;54.018;9.300;2023-02-10T02:53:16;4.40;99.90
31046;DHT22;17711;54.018;9.300;2023-02-10T02:55:52;4.40;99.90
31046;DHT22;17711;54.018;9.300;2023-02-10T02:58:33;4.40;99.90
31046;DHT22;17711;54.018;9.300;2023-02-10T03:01:07;4.40;99.90
31046;DHT22;17711;54.018;9.300;2023-02-10T03:03:39;4.40;99.90
31046;DHT22;17711;54.018;9.300;2023-02-10T03:06:08;4.40;99.90
31046;DHT22;17711;54.018;9.300;2023-02-10T03:08:38;4.40;99.90
31046;DHT22;17711;54.018;9.300;2023-02-10T03:11:08;4.40;99.90
31046;DHT22;17711;54.018;9.300;2023-02-10T03:13:37;4.40;99.90
31046;DHT22;17711;54.018;9.300;2023-02-10T03:16:05;4.50;99.90
31046;DHT22;17711;54.018;9.300;2023-02-10T03:18:34;4.50;99.90
31046;DHT22;17711;54.018;9.300;2023-02-10T03:21:05;4.40;99.90
31046;DHT22;17711;54.018;9.300;2023-02-10T03:23:34;4.40;99.90
31046;DHT22;17711;54.018;9.300;2023-02-10T03:26:02;4.40;99.90
31046;DHT22;17711;54.018;9.300;2023-02-10T03:28:31;4.50;99.90
31046;DHT22;17711;54.018;9.300;2023-02-10T03:31:02;4.50;99.90
31046;DHT22;17711;54.018;9.300;2023-02-10T03:33:31;4.50;99.90
31046;DHT22;17711;54.018;9.300;2023-02-10T03:36:00;4.50;99.90
31046;DHT22;17711;54.018;9.300;2023-02-10T03:38:30;4.50;99.90
31046;DHT22;17711;54.018;9.300;2023-02-10T03:40:58;4.50;99.90
31046;DHT22;17711;54.018;9.300;2023-02-10T03:43:27;4.50;99.90
31046;DHT22;17711;54.018;9.300;2023-02-10T03:45:58;4.50;99.90
31046;DHT22;17711;54.018;9.300;2023-02-10T03:48:27;4.60;99.90
31046;DHT22;17711;54.018;9.300;2023-02-10T03:50:58;4.60;99.90
31046;DHT22;17711;54.018;9.300;2023-02-10T03:53:28;4.60;99.90
31046;DHT22;17711;54.018;9.300;2023-02-10T03:55:58;4.70;99.90
31046;DHT22;17711;54.018;9.300;2023-02-10T03:58:27;4.60;99.90
31046;DHT22;17711;54.018;9.300;2023-02-10T04:00:55;4.60;99.90
31046;DHT22;17711;54.018;9.300;2023-02-10T04:03:24;4.60;99.90
31046;DHT22;17711;54.018;9.300;2023-02-10T04:05:53;4.60;99.90
31046;DHT22;17711;54.018;9.300;2023-02-10T04:08:24;4.70;99.90
31046;DHT22;17711;54.018;9.300;2023-02-10T04:10:52;4.60;99.90
31046;DHT22;17711;54.018;9.300;2023-02-10T04:13:22;4.70;99.90
31046;DHT22;17711;54.018;9.300;2023-02-10T04:16:00;4.70;99.90
31046;DHT22;17711;54.018;9.300;2023-02-10T04:18:29;4.60;99.90
31046;DHT22;17711;54.018;9.300;2023-02-10T04:20:58;4.70;99.90
31046;DHT22;17711;54.018;9.300;2023-02-10T04:23:28;4.70;99.90
31046;DHT22;17711;54.018;9.300;2023-02-10T04:25:57;4.70;99.90
31046;DHT22;17711;54.018;9.300;2023-02-10T04:28:27;4.70;99.90
31046;DHT22;17711;54.018;9.300;2023-02-10T04:30:58;4.70;99.90
31046;DHT22;17711;54.018;9.300;2023-02-10T04:33:27;4.70;99.90
31046;DHT22;17711;54.018;9.300;2023-02-10T04:35:56;4.70;99.90
31046;DHT22;17711;54.018;9.300;2023-02-10T04:38:25;4.70;99.90
31046;DHT22;17711;54.018;9.300;2023-02-10T04:40:54;4.80;99.90
31046;DHT22;17711;54.018;9.300;2023-02-10T04:43:22;4.70;99.90
31046;DHT22;17711;54.018;9.300;2023-02-10T04:45:52;4.80;99.90
31046;DHT22;17711;54.018;9.300;2023-02-10T04:48:21;4.80;99.90
31046;DHT22;17711;54.018;9.300;2023-02-10T04:50:49;4.90;99.90
31046;DHT22;17711;54.018;9.300;2023-02-10T04:53:19;4.90;99.90
31046;DHT22;17711;54.018;9.300;2023-02-10T04:55:47;4.90;99.90
31046;DHT22;17711;54.018;9.300;2023-02-10T04:58:17;4.90;99.90
31046;DHT22;17711;54.018;9.300;2023-02-10T05:00:46;4.90;99.90
31046;DHT22;17711;54.018;9.300;2023-02-10T05:03:16;4.90;99.90
31046;DHT22;17711;54.018;9.300;2023-02-10T05:05:44;4.90;99.90
31046;DHT22;17711;54.018;9.300;2023-02-10T05:08:13;5.00;99.90
31046;DHT22;17711;54.018;9.300;2023-02-10T05:10:42;5.00;99.90
31046;DHT22;17711;54.018;9.300;2023-02-10T05:13:11;5.00;99.90
31046;DHT22;17711;54.018;9.300;2023-02-10T05:15:39;5.00;99.90
31046;DHT22;17711;54.018;9.300;2023-02-10T05:18:08;5.00;99.90
31046;DHT22;17711;54.018;9.300;2023-02-10T05:20:38;5.00;99.90
31046;DHT22;17711;54.018;9.300;2023-02-10T05:23:06;5.00;99.90
31046;DHT22;17711;54.018;9.300;2023-02-10T05:25:35;5.00;99.90
31046;DHT22;17711;54.018;9.300;2023-02-10T05:28:03;5.00;99.90
31046;DHT22;17711;54.018;9.300;2023-02-10T05:30:32;5.00;99.90
31046;DHT22;17711;54.018;9.300;2023-02-10T05:33:01;5.00;99.90
31046;DHT22;17711;54.018;9.300;2023-02-10T05:35:29;5.10;99.90
31046;DHT22;17711;54.018;9.300;2023-02-10T05:37:59;5.00;99.90
31046;DHT22;17711;54.018;9.300;2023-02-10T05:40:28;5.10;99.90
31046;DHT22;17711;54.018;9.300;2023-02-10T05:42:57;5.10;99.90
31046;DHT22;17711;54.018;9.300;2023-02-10T05:45:25;5.10;99.90
31046;DHT22;17711;54.018;9.300;2023-02-10T05:47:54;5.10;99.90
31046;DHT22;17711;54.018;9.300;2023-02-10T05:50:23;5.10;99.90
31046;DHT22;17711;54.018;9.300;2023-02-10T05:52:51;5.10;99.90
31046;DHT22;17711;54.018;9.300;2023-02-10T05:55:21;5.10;99.90
31046;DHT22;17711;54.018;9.300;2023-02-10T05:57:51;5.10;99.90
31046;DHT22;17711;54.018;9.300;2023-02-10T06:00:20;5.00;99.90
31046;DHT22;17711;54.018;9.300;2023-02-10T06:02:49;5.00;99.90
31046;DHT22;17711;54.018;9.300;2023-02-10T06:05:18;5.10;99.90
31046;DHT22;17711;54.018;9.300;2023-02-10T06:07:46;5.10;99.90
31046;DHT22;17711;54.018;9.300;2023-02-10T06:10:15;5.10;99.90
31046;DHT22;17711;54.018;9.300;2023-02-10T06:12:45;5.10;99.90
31046;DHT22;17711;54.018;9.300;2023-02-10T06:15:13;5.10;99.90
31046;DHT22;17711;54.018;9.300;2023-02-10T06:17:42;5.10;99.90
31046;DHT22;17711;54.018;9.300;2023-02-10T06:20:10;5.10;99.90
31046;DHT22;17711;54.018;9.300;2023-02-10T06:22:39;5.10;99.90
31046;DHT22;17711;54.018;9.300;2023-02-10T06:25:07;5.10;99.90
31046;DHT22;17711;54.018;9.300;2023-02-10T06:27:36;5.10;99.90
31046;DHT22;17711;54.018;9.300;2023-02-10T06:30:08;5.10;99.90
31046;DHT22;17711;54.018;9.300;2023-02-10T06:32:36;5.10;99.90
31046;DHT22;17711;54.018;9.300;2023-02-10T06:35:05;5.10;99.90
31046;DHT22;17711;54.018;9.300;2023-02-10T06:37:34;5.10;99.90
31046;DHT22;17711;54.018;9.300;2023-02-10T06:40:03;5.00;99.90
31046;DHT22;17711;54.018;9.300;2023-02-10T06:42:32;5.00;99.90
31046;DHT22;17711;54.018;9.300;2023-02-10T06:45:01;5.00;99.90
31046;DHT22;17711;54.018;9.300;2023-02-10T06:47:32;5.00;99.90
31046;DHT22;17711;54.018;9.300;2023-02-10T06:50:01;5.00;99.90
31046;DHT22;17711;54.018;9.300;2023-02-10T06:52:30;4.90;99.90
31046;DHT22;17711;54.018;9.300;2023-02-10T06:54:58;4.90;99.90
31046;DHT22;17711;54.018;9.300;2023-02-10T06:57:27;4.90;99.90
31046;DHT22;17711;54.018;9.300;2023-02-10T06:59:55;4.90;99.90
31046;DHT22;17711;54.018;9.300;2023-02-10T07:02:25;4.80;99.90
31046;DHT22;17711;54.018;9.300;2023-02-10T07:04:55;4.90;99.90
31046;DHT22;17711;54.018;9.300;2023-02-10T07:07:24;4.90;99.90
31046;DHT22;17711;54.018;9.300;2023-02-10T07:09:52;4.80;99.90
31046;DHT22;17711;54.018;9.300;2023-02-10T07:12:21;4.80;99.90
31046;DHT22;17711;54.018;9.300;2023-02-10T07:14:52;4.80;99.90
31046;DHT22;17711;54.018;9.300;2023-02-10T07:17:20;4.80;99.90
31046;DHT22;17711;54.018;9.300;2023-02-10T07:19:49;4.80;99.90
31046;DHT22;17711;54.018;9.300;2023-02-10T07:22:19;4.80;99.90
31046;DHT22;17711;54.018;9.300;2023-02-10T07:24:47;4.80;99.90
31046;DHT22;17711;54.018;9.300;2023-02-10T07:27:16;4.80;99.90
31046;DHT22;17711;54.018;9.300;2023-02-10T07:29:44;4.80;99.90
31046;DHT22;17711;54.018;9.300;2023-02-10T07:32:14;4.80;99.90
31046;DHT22;17711;54.018;9.300;2023-02-10T07:34:43;4.80;99.90
31046;DHT22;17711;54.018;9.300;2023-02-10T07:37:11;4.80;99.90
31046;DHT22;17711;54.018;9.300;2023-02-10T07:39:41;4.90;99.90
31046;DHT22;17711;54.018;9.300;2023-02-10T07:42:10;4.90;99.90
31046;DHT22;17711;54.018;9.300;2023-02-10T07:44:38;4.90;99.90
31046;DHT22;17711;54.018;9.300;2023-02-10T07:47:09;4.90;99.90
31046;DHT22;17711;54.018;9.300;2023-02-10T07:49:38;4.90;99.90
31046;DHT22;17711;54.018;9.300;2023-02-10T07:52:06;4.90;99.90
31046;DHT22;17711;54.018;9.300;2023-02-10T07:54:36;5.00;99.90
31046;DHT22;17711;54.018;9.300;2023-02-10T07:57:06;5.00;99.90
31046;DHT22;17711;54.018;9.300;2023-02-10T07:59:34;5.00;99.90
31046;DHT22;17711;54.018;9.300;2023-02-10T08:02:03;5.00;99.90
31046;DHT22;17711;54.018;9.300;2023-02-10T08:04:32;5.10;99.90
31046;DHT22;17711;54.018;9.300;2023-02-10T08:07:01;5.10;99.90
31046;DHT22;17711;54.018;9.300;2023-02-10T08:09:29;5.20;99.90
31046;DHT22;17711;54.018;9.300;2023-02-10T08:11:58;5.20;99.90
31046;DHT22;17711;54.018;9.300;2023-02-10T08:14:28;5.30;99.90
31046;DHT22;17711;54.018;9.300;2023-02-10T08:16:57;5.50;99.90
31046;DHT22;17711;54.018;9.300;2023-02-10T08:19:26;5.50;99.90
31046;DHT22;17711;54.018;9.300;2023-02-10T08:21:54;5.60;99.90
31046;DHT22;17711;54.018;9.300;2023-02-10T08:24:23;5.60;99.90
31046;DHT22;17711;54.018;9.300;2023-02-10T08:26:51;5.70;99.90
31046;DHT22;17711;54.018;9.300;2023-02-10T08:29:20;5.70;99.90
31046;DHT22;17711;54.018;9.300;2023-02-10T08:31:50;5.60;99.90
31046;DHT22;17711;54.018;9.300;2023-02-10T08:34:20;5.60;99.90
31046;DHT22;17711;54.018;9.300;2023-02-10T08:36:49;5.60;99.90
31046;DHT22;17711;54.018;9.300;2023-02-10T08:39:17;5.60;99.90
31046;DHT22;17711;54.018;9.300;2023-02-10T08:41:47;5.60;99.90
31046;DHT22;17711;54.018;9.300;2023-02-10T08:44:15;5.60;99.90
31046;DHT22;17711;54.018;9.300;2023-02-10T08:46:44;5.60;99.90
31046;DHT22;17711;54.018;9.300;2023-02-10T08:49:14;5.80;99.90
31046;DHT22;17711;54.018;9.300;2023-02-10T08:51:42;6.00;99.90
31046;DHT22;17711;54.018;9.300;2023-02-10T08:54:11;6.30;99.90
31046;DHT22;17711;54.018;9.300;2023-02-10T08:56:39;6.30;99.90
31046;DHT22;17711;54.018;9.300;2023-02-10T08:59:08;6.20;99.90
31046;DHT22;17711;54.018;9.300;2023-02-10T09:01:37;6.20;99.90
31046;DHT22;17711;54.018;9.300;2023-02-10T09:04:07;6.10;99.90
31046;DHT22;17711;54.018;9.300;2023-02-10T09:06:38;6.00;99.90
31046;DHT22;17711;54.018;9.300;2023-02-10T09:09:10;6.00;99.90
31046;DHT22;17711;54.018;9.300;2023-02-10T09:11:39;6.00;99.90
31046;DHT22;17711;54.018;9.300;2023-02-10T09:14:08;6.10;99.90
31046;DHT22;17711;54.018;9.300;2023-02-10T09:16:37;6.20;99.90
31046;DHT22;17711;54.018;9.300;2023-02-10T09:19:06;6.20;99.90
31046;DHT22;17711;54.018;9.300;2023-02-10T09:21:36;6.30;99.90
31046;DHT22;17711;54.018;9.300;2023-02-10T09:24:13;6.40;99.90
31046;DHT22;17711;54.018;9.300;2023-02-10T09:26:42;6.60;99.90
31046;DHT22;17711;54.018;9.300;2023-02-10T09:29:11;6.90;99.90
31046;DHT22;17711;54.018;9.300;2023-02-10T09:31:39;7.30;99.90
31046;DHT22;17711;54.018;9.300;2023-02-10T09:34:08;7.70;99.90
31046;DHT22;17711;54.018;9.300;2023-02-10T09:36:38;8.10;99.90
31046;DHT22;17711;54.018;9.300;2023-02-10T09:39:07;8.30;99.90
31046;DHT22;17711;54.018;9.300;2023-02-10T09:41:48;8.00;99.90
31046;DHT22;17711;54.018;9.300;2023-02-10T09:44:22;7.80;99.90
31046;DHT22;17711;54.018;9.300;2023-02-10T09:47:10;7.80;99.90
31046;DHT22;17711;54.018;9.300;2023-02-10T09:50:26;7.70;99.90
31046;DHT22;17711;54.018;9.300;2023-02-10T09:53:04;7.70;99.90
31046;DHT22;17711;54.018;9.300;2023-02-10T09:55:39;8.10;99.90
31046;DHT22;17711;54.018;9.300;2023-02-10T09:58:17;8.70;99.90
31046;DHT22;17711;54.018;9.300;2023-02-10T10:00:50;9.10;99.90
31046;DHT22;17711;54.018;9.300;2023-02-10T10:03:24;9.10;99.90
31046;DHT22;17711;54.018;9.300;2023-02-10T10:06:02;8.80;99.90
31046;DHT22;17711;54.018;9.300;2023-02-10T10:08:39;8.50;99.90
31046;DHT22;17711;54.018;9.300;2023-02-10T10:11:23;8.60;99.90
31046;DHT22;17711;54.018;9.300;2023-02-10T10:13:53;8.70;99.90
31046;DHT22;17711;54.018;9.300;2023-02-10T10:16:51;8.70;99.90
31046;DHT22;17711;54.018;9.300;2023-02-10T10:19:31;8.90;99.90
31046;DHT22;17711;54.018;9.300;2023-02-10T10:22:10;9.10;99.90
31046;DHT22;17711;54.018;9.300;2023-02-10T10:24:53;9.20;99.90
31046;DHT22;17711;54.018;9.300;2023-02-10T10:27:29;9.10;99.90
31046;DHT22;17711;54.018;9.300;2023-02-10T10:30:04;9.00;99.90
31046;DHT22;17711;54.018;9.300;2023-02-10T10:32:40;8.90;99.90
31046;DHT22;17711;54.018;9.300;2023-02-10T10:35:15;8.60;99.90
31046;DHT22;17711;54.018;9.300;2023-02-10T10:37:44;8.40;99.90
31046;DHT22;17711;54.018;9.300;2023-02-10T10:40:19;8.30;99.90
31046;DHT22;17711;54.018;9.300;2023-02-10T10:42:51;8.30;99.90
31046;DHT22;17711;54.018;9.300;2023-02-10T10:45:30;8.30;99.90
31046;DHT22;17711;54.018;9.300;2023-02-10T10:48:06;8.10;99.90
31046;DHT22;17711;54.018;9.300;2023-02-10T10:50:35;8.00;99.90
31046;DHT22;17711;54.018;9.300;2023-02-10T10:53:13;8.00;99.90
31046;DHT22;17711;54.018;9.300;2023-02-10T10:55:47;7.90;99.90
31046;DHT22;17711;54.018;9.300;2023-02-10T10:58:23;7.80;99.90
31046;DHT22;17711;54.018;9.300;2023-02-10T11:00:57;7.80;99.90
31046;DHT22;17711;54.018;9.300;2023-02-10T11:03:26;7.70;99.90
31046;DHT22;17711;54.018;9.300;2023-02-10T11:05:59;7.70;99.90
31046;DHT22;17711;54.018;9.300;2023-02-10T11:08:29;7.70;99.90
31046;DHT22;17711;54.018;9.300;2023-02-10T11:11:01;7.60;99.90
31046;DHT22;17711;54.018;9.300;2023-02-10T11:13:32;7.40;99.90
31046;DHT22;17711;54.018;9.300;2023-02-10T11:16:08;7.40;99.90
31046;DHT22;17711;54.018;9.300;2023-02-10T11:18:39;7.30;99.90
31046;DHT22;17711;54.018;9.300;2023-02-10T11:21:10;7.20;99.90
31046;DHT22;17711;54.018;9.300;2023-02-10T11:23:47;7.20;99.90
31046;DHT22;17711;54.018;9.300;2023-02-10T11:26:20;7.20;99.90
31046;DHT22;17711;54.018;9.300;2023-02-10T11:28:49;7.10;99.90
31046;DHT22;17711;54.018;9.300;2023-02-10T11:31:27;7.10;99.90
31046;DHT22;17711;54.018;9.300;2023-02-10T11:34:01;7.10;99.90
31046;DHT22;17711;54.018;9.300;2023-02-10T11:36:34;7.00;99.90
31046;DHT22;17711;54.018;9.300;2023-02-10T11:39:16;6.90;99.90
31046;DHT22;17711;54.018;9.300;2023-02-10T11:41:49;6.90;99.90
31046;DHT22;17711;54.018;9.300;2023-02-10T11:44:27;6.90;99.90
31046;DHT22;17711;54.018;9.300;2023-02-10T11:46:58;7.00;99.90
31046;DHT22;17711;54.018;9.300;2023-02-10T11:49:29;7.00;99.90
31046;DHT22;17711;54.018;9.300;2023-02-10T11:52:02;7.20;99.90
31046;DHT22;17711;54.018;9.300;2023-02-10T11:54:31;7.30;99.90
31046;DHT22;17711;54.018;9.300;2023-02-10T11:57:18;7.30;99.90
31046;DHT22;17711;54.018;9.300;2023-02-10T12:00:22;7.40;99.90
31046;DHT22;17711;54.018;9.300;2023-02-10T12:05:55;7.80;99.90
31046;DHT22;17711;54.018;9.300;2023-02-10T12:08:32;7.90;99.90
31046;DHT22;17711;54.018;9.300;2023-02-10T12:11:06;8.10;99.90
31046;DHT22;17711;54.018;9.300;2023-02-10T12:13:43;8.00;99.90
31046;DHT22;17711;54.018;9.300;2023-02-10T12:16:18;7.90;99.90
31046;DHT22;17711;54.018;9.300;2023-02-10T12:18:58;7.90;99.90
31046;DHT22;17711;54.018;9.300;2023-02-10T12:22:03;7.90;99.90
31046;DHT22;17711;54.018;9.300;2023-02-10T12:24:57;7.90;99.90
31046;DHT22;17711;54.018;9.300;2023-02-10T12:27:38;7.90;99.90
31046;DHT22;17711;54.018;9.300;2023-02-10T12:30:24;7.80;99.90
31046;DHT22;17711;54.018;9.300;2023-02-10T12:33:03;7.70;99.90
31046;DHT22;17711;54.018;9.300;2023-02-10T12:35:42;7.80;99.90
31046;DHT22;17711;54.018;9.300;2023-02-10T12:38:32;7.80;99.90
31046;DHT22;17711;54.018;9.300;2023-02-10T12:41:11;7.90;99.90
31046;DHT22;17711;54.018;9.300;2023-02-10T12:43:54;8.10;99.90
31046;DHT22;17711;54.018;9.300;2023-02-10T12:46:35;7.90;99.90
31046;DHT22;17711;54.018;9.300;2023-02-10T12:49:12;7.90;99.90
31046;DHT22;17711;54.018;9.300;2023-02-10T12:51:51;7.80;99.90
31046;DHT22;17711;54.018;9.300;2023-02-10T12:54:26;7.80;99.90
31046;DHT22;17711;54.018;9.300;2023-02-10T12:57:13;7.70;99.90
31046;DHT22;17711;54.018;9.300;2023-02-10T12:59:49;7.70;99.90
31046;DHT22;17711;54.018;9.300;2023-02-10T13:02:22;7.60;99.90
31046;DHT22;17711;54.018;9.300;2023-02-10T13:04:57;7.70;99.90
31046;DHT22;17711;54.018;9.300;2023-02-10T13:07:34;7.70;99.90
31046;DHT22;17711;54.018;9.300;2023-02-10T13:10:16;7.70;99.90
31046;DHT22;17711;54.018;9.300;2023-02-10T13:12:47;7.70;99.90
31046;DHT22;17711;54.018;9.300;2023-02-10T13:15:21;7.70;99.90
31046;DHT22;17711;54.018;9.300;2023-02-10T13:17:52;7.70;99.90
31046;DHT22;17711;54.018;9.300;2023-02-10T13:20:34;7.80;99.90
31046;DHT22;17711;54.018;9.300;2023-02-10T13:23:19;7.90;99.90
31046;DHT22;17711;54.018;9.300;2023-02-10T13:26:01;8.00;99.90
31046;DHT22;17711;54.018;9.300;2023-02-10T13:28:44;8.20;99.90
31046;DHT22;17711;54.018;9.300;2023-02-10T13:31:26;8.10;99.90
31046;DHT22;17711;54.018;9.300;2023-02-10T13:34:02;8.20;99.90
31046;DHT22;17711;54.018;9.300;2023-02-10T13:36:35;8.20;99.90
31046;DHT22;17711;54.018;9.300;2023-02-10T13:39:19;8.30;99.90
31046;DHT22;17711;54.018;9.300;2023-02-10T13:41:50;8.50;99.90
31046;DHT22;17711;54.018;9.300;2023-02-10T13:44:28;8.80;99.90
31046;DHT22;17711;54.018;9.300;2023-02-10T13:47:09;9.00;99.90
31046;DHT22;17711;54.018;9.300;2023-02-10T13:49:57;9.00;99.90
31046;DHT22;17711;54.018;9.300;2023-02-10T13:52:30;9.20;99.90
31046;DHT22;17711;54.018;9.300;2023-02-10T13:55:36;9.10;99.90
31046;DHT22;17711;54.018;9.300;2023-02-10T13:58:31;9.10;99.90
31046;DHT22;17711;54.018;9.300;2023-02-10T14:01:00;9.10;99.90
31046;DHT22;17711;54.018;9.300;2023-02-10T14:03:30;9.40;99.90
31046;DHT22;17711;54.018;9.300;2023-02-10T14:06:02;9.50;99.90
31046;DHT22;17711;54.018;9.300;2023-02-10T14:08:35;9.50;99.90
31046;DHT22;17711;54.018;9.300;2023-02-10T14:11:29;9.40;99.90
31046;DHT22;17711;54.018;9.300;2023-02-10T14:14:01;9.40;99.90
31046;DHT22;17711;54.018;9.300;2023-02-10T14:16:35;9.30;99.90
31046;DHT22;17711;54.018;9.300;2023-02-10T14:19:17;9.20;99.90
31046;DHT22;17711;54.018;9.300;2023-02-10T14:21:49;9.00;99.90
31046;DHT22;17711;54.018;9.300;2023-02-10T14:24:22;8.80;99.90
31046;DHT22;17711;54.018;9.300;2023-02-10T14:26:56;8.80;99.90
31046;DHT22;17711;54.018;9.300;2023-02-10T14:29:26;8.80;99.90
31046;DHT22;17711;54.018;9.300;2023-02-10T14:31:57;8.70;99.90
31046;DHT22;17711;54.018;9.300;2023-02-10T14:34:29;8.80;99.90
31046;DHT22;17711;54.018;9.300;2023-02-10T14:37:01;8.90;99.90
31046;DHT22;17711;54.018;9.300;2023-02-10T14:39:30;9.00;99.90
31046;DHT22;17711;54.018;9.300;2023-02-10T14:42:03;9.10;99.90
31046;DHT22;17711;54.018;9.300;2023-02-10T14:44:33;9.10;99.90
31046;DHT22;17711;54.018;9.300;2023-02-10T14:47:03;9.10;99.90
31046;DHT22;17711;54.018;9.300;2023-02-10T14:49:31;9.00;99.90
31046;DHT22;17711;54.018;9.300;2023-02-10T14:52:04;9.10;99.90
31046;DHT22;17711;54.018;9.300;2023-02-10T14:54:37;9.10;99.90
31046;DHT22;17711;54.018;9.300;2023-02-10T14:57:11;9.10;99.90
31046;DHT22;17711;54.018;9.300;2023-02-10T14:59:40;8.90;99.90
31046;DHT22;17711;54.018;9.300;2023-02-10T15:02:16;8.70;99.90
31046;DHT22;17711;54.018;9.300;2023-02-10T15:04:47;8.80;99.90
31046;DHT22;17711;54.018;9.300;2023-02-10T15:07:22;8.80;99.90
31046;DHT22;17711;54.018;9.300;2023-02-10T15:09:58;8.80;99.90
31046;DHT22;17711;54.018;9.300;2023-02-10T15:12:28;8.70;99.90
31046;DHT22;17711;54.018;9.300;2023-02-10T15:15:21;8.70;99.90
31046;DHT22;17711;54.018;9.300;2023-02-10T15:17:55;8.50;99.90
31046;DHT22;17711;54.018;9.300;2023-02-10T15:20:28;8.50;99.90
31046;DHT22;17711;54.018;9.300;2023-02-10T15:23:12;8.40;99.90
31046;DHT22;17711;54.018;9.300;2023-02-10T15:26:02;8.40;99.90
31046;DHT22;17711;54.018;9.300;2023-02-10T15:28:32;8.40;99.90
31046;DHT22;17711;54.018;9.300;2023-02-10T15:31:19;8.20;99.90
31046;DHT22;17711;54.018;9.300;2023-02-10T15:33:52;8.20;99.90
31046;DHT22;17711;54.018;9.300;2023-02-10T15:36:24;8.10;99.90
31046;DHT22;17711;54.018;9.300;2023-02-10T15:38:59;7.90;99.90
31046;DHT22;17711;54.018;9.300;2023-02-10T15:41:40;7.80;99.90
31046;DHT22;17711;54.018;9.300;2023-02-10T15:44:38;7.80;99.90
31046;DHT22;17711;54.018;9.300;2023-02-10T15:47:36;7.80;99.90
31046;DHT22;17711;54.018;9.300;2023-02-10T15:50:07;7.70;99.90
31046;DHT22;17711;54.018;9.300;2023-02-10T15:52:40;7.70;99.90
31046;DHT22;17711;54.018;9.300;2023-02-10T15:55:19;7.60;99.90
31046;DHT22;17711;54.018;9.300;2023-02-10T15:57:48;7.60;99.90
31046;DHT22;17711;54.018;9.300;2023-02-10T16:00:23;7.60;99.90
31046;DHT22;17711;54.018;9.300;2023-02-10T16:02:52;7.50;99.90
31046;DHT22;17711;54.018;9.300;2023-02-10T16:05:22;7.40;99.90
31046;DHT22;17711;54.018;9.300;2023-02-10T16:07:52;7.40;99.90
31046;DHT22;17711;54.018;9.300;2023-02-10T16:10:24;7.30;99.90
31046;DHT22;17711;54.018;9.300;2023-02-10T16:12:53;7.20;99.90
31046;DHT22;17711;54.018;9.300;2023-02-10T16:15:24;7.20;99.90
31046;DHT22;17711;54.018;9.300;2023-02-10T16:17:55;7.10;99.90
31046;DHT22;17711;54.018;9.300;2023-02-10T16:20:26;7.00;99.90
31046;DHT22;17711;54.018;9.300;2023-02-10T16:22:57;7.00;99.90
31046;DHT22;17711;54.018;9.300;2023-02-10T16:25:33;7.00;99.90
31046;DHT22;17711;54.018;9.300;2023-02-10T16:28:02;7.00;99.90
31046;DHT22;17711;54.018;9.300;2023-02-10T16:30:32;7.00;99.90
31046;DHT22;17711;54.018;9.300;2023-02-10T16:33:03;7.00;99.90